Weather History for Marysville, OH

Change the Weather History Date:

Monday, October 14, 2013

  Actual Average (KDLZ) Record (KDLZ)
Temperature  
Mean Temperature 56 °F -  
Max Temperature 68 °F 65 °F 84 °F (1969)
Min Temperature 44 °F 41 °F 25 °F (1987)
Degree Days  
Heating Degree Days 9    
Growing Degree Days 6 (Base 50)    
Moisture  
Dew Point 42 °F    
Average Humidity 65    
Maximum Humidity 93    
Minimum Humidity 31    
Precipitation  
Precipitation 0.00 in - - ()
Sea Level Pressure  
Sea Level Pressure 30.29 in    
Wind  
Wind Speed 4 mph (NE)    
Max Wind Speed 12 mph    
Max Gust Speed -    
Visibility 10 miles    
Events      
Averages and records for this station are not official NWS values.
T = Trace of Precipitation, MM = Missing Value Source: NWS Daily Summary

Daily Weather History Graph

Daily Weather History Graph

Search for Another Location

Airport:

Trip Planner

Search our weather history database for the weather conditions in past years. The results will help you decide how hot, cold, wet, or windy it might be!

Date:

Astronomy

Oct. 14, 2013 Rise Set
Actual Time 7:43 AM EDT 6:54 PM EDT
Civil Twilight 7:15 AM EDT 7:22 PM EDT
Nautical Twilight 6:44 AM EDT 7:53 PM EDT
Astronomical Twilight 6:12 AM EDT 8:24 PM EDT
Moon 4:24 PM EDT (10/14) 2:58 AM EDT (10/14)
Length of Visible Light 12h 06m
Length of Day
11h 11m
Waxing Gibbous, 79% of the Moon is Illuminated
Oct 14
Waxing Gibbous
Oct 18
Full
Oct 26
Last Quarter
Nov 3
New
Nov 10
First Quarter

Hourly Weather History & Observations

Time (EDT) Temp. Windchill Dew Point Humidity Pressure Visibility Wind Dir Wind Speed Gust Speed Precip Events Conditions
12:14 AM 48.9 °F - 47.1 °F 93% 30.32 in 10.0 mi NNW 3.5 mph - N/A   Clear
12:33 AM 49.6 °F - 45.5 °F 86% 30.32 in 10.0 mi North 3.5 mph - N/A   Clear
12:53 AM 49.8 °F - 43.7 °F 79% 30.32 in 10.0 mi North 4.6 mph - N/A   Clear
1:14 AM 49.6 °F - 42.4 °F 76% 30.32 in 10.0 mi North 3.5 mph - N/A   Clear
1:33 AM 49.3 °F - 41.9 °F 76% 30.32 in 10.0 mi Calm Calm - N/A   Clear
1:53 AM 48.6 °F - 41.9 °F 78% 30.32 in 10.0 mi North 3.5 mph - N/A   Clear
2:13 AM 48.2 °F - 40.8 °F 76% 30.32 in 10.0 mi North 4.6 mph - N/A   Clear
2:33 AM 48.0 °F - 40.1 °F 74% 30.32 in 10.0 mi North 5.8 mph - N/A   Clear
2:53 AM 47.8 °F - 39.4 °F 72% 30.32 in 10.0 mi North 5.8 mph - N/A   Clear
3:13 AM 47.7 °F - 39.2 °F 72% 30.32 in 10.0 mi North 4.6 mph - N/A   Clear
3:33 AM 47.3 °F - 39.2 °F 73% 30.32 in 10.0 mi North 4.6 mph - N/A   Clear
3:53 AM 46.4 °F 44.3 °F 39.2 °F 76% 30.32 in 10.0 mi North 4.6 mph - N/A   Clear
4:13 AM 47.1 °F - 39.4 °F 74% 30.32 in 10.0 mi North 4.6 mph - N/A   Clear
4:34 AM 46.4 °F 44.3 °F 39.4 °F 77% 30.32 in 10.0 mi North 4.6 mph - N/A   Clear
4:53 AM 46.4 °F 44.3 °F 39.6 °F 77% 30.33 in 10.0 mi North 4.6 mph - N/A   Clear
5:13 AM 46.4 °F 43.5 °F 40.3 °F 79% 30.33 in 10.0 mi North 5.8 mph - N/A   Clear
5:34 AM 45.7 °F 43.4 °F 40.1 °F 81% 30.33 in 10.0 mi North 4.6 mph - N/A   Clear
5:53 AM 45.5 °F 43.2 °F 40.1 °F 81% 30.33 in 10.0 mi North 4.6 mph - N/A   Clear
6:13 AM 45.5 °F 43.2 °F 40.3 °F 82% 30.34 in 10.0 mi North 4.6 mph - N/A   Clear
6:34 AM 45.1 °F 42.8 °F 40.5 °F 84% 30.35 in 10.0 mi North 4.6 mph - N/A   Clear
6:53 AM 45.0 °F 42.6 °F 40.5 °F 84% 30.35 in 10.0 mi North 4.6 mph - N/A   Clear
7:13 AM 44.6 °F 43.1 °F 40.5 °F 85% 30.35 in 10.0 mi North 3.5 mph - N/A   Clear
7:34 AM 44.6 °F 43.1 °F 40.8 °F 87% 30.35 in 10.0 mi North 3.5 mph - N/A   Clear
7:53 AM 44.6 °F 42.2 °F 40.6 °F 86% 30.35 in 10.0 mi North 4.6 mph - N/A   Clear
8:13 AM 44.8 °F 43.3 °F 41.4 °F 88% 30.35 in 10.0 mi NNE 3.5 mph - N/A   Clear
8:34 AM 46.4 °F 43.5 °F 42.3 °F 85% 30.35 in 10.0 mi North 5.8 mph - N/A   Clear
8:53 AM 47.5 °F - 43.2 °F 85% 30.36 in 10.0 mi NNE 3.5 mph - N/A   Clear
9:13 AM 49.5 °F - 45.0 °F 84% 30.36 in 10.0 mi NNE 4.6 mph - N/A   Clear
9:34 AM 52.3 °F - 46.8 °F 81% 30.36 in 10.0 mi NE 4.6 mph - N/A   Clear
9:53 AM 54.0 °F - 47.7 °F 79% 30.36 in 10.0 mi ENE 5.8 mph - N/A   Clear
10:13 AM 55.4 °F - 48.0 °F 76% 30.36 in 10.0 mi ENE 8.1 mph - N/A   Clear
10:33 AM 57.4 °F - 48.4 °F 72% 30.36 in 10.0 mi East 8.1 mph - N/A   Clear
10:54 AM 58.1 °F - 47.5 °F 68% 30.35 in 10.0 mi East 11.5 mph - N/A   Clear
11:33 AM 60.8 °F - 46.8 °F 60% 30.34 in 10.0 mi East 10.4 mph - N/A   Clear
11:54 AM 61.5 °F - 45.9 °F 56% 30.34 in 10.0 mi ENE 9.2 mph - N/A   Clear
12:13 PM 63.5 °F - 45.9 °F 53% 30.33 in 10.0 mi NE 8.1 mph - N/A   Clear
12:33 PM 63.7 °F - 43.3 °F 48% 30.32 in 10.0 mi NE 8.1 mph - N/A   Clear
12:53 PM 64.6 °F - 42.3 °F 44% 30.32 in 10.0 mi East 8.1 mph - N/A   Clear
1:13 PM 65.5 °F - 38.3 °F 37% 30.31 in 10.0 mi East 6.9 mph - N/A   Clear
1:34 PM 66.0 °F - 39.4 °F 38% 30.30 in 10.0 mi East 4.6 mph - N/A   Clear
1:53 PM 66.4 °F - 39.4 °F 37% 30.29 in 10.0 mi East 6.9 mph - N/A   Clear
2:13 PM 66.7 °F - 39.2 °F 36% 30.28 in 10.0 mi ESE 4.6 mph - N/A   Clear
2:34 PM 67.3 °F - 37.9 °F 34% 30.27 in 10.0 mi Calm Calm - N/A   Clear
2:53 PM 67.8 °F - 40.8 °F 37% 30.27 in 10.0 mi North 4.6 mph - N/A   Clear
3:13 PM 68.0 °F - 39.2 °F 35% 30.26 in 10.0 mi East 3.5 mph - N/A   Clear
3:34 PM 68.2 °F - 39.0 °F 34% 30.25 in 10.0 mi Calm Calm - N/A   Clear
3:53 PM 68.7 °F - 37.2 °F 31% 30.24 in 10.0 mi East 3.5 mph - N/A   Clear
4:14 PM 68.7 °F - 38.5 °F 33% 30.23 in 10.0 mi NE 4.6 mph - N/A   Clear
4:33 PM 68.9 °F - 38.3 °F 33% 30.23 in 10.0 mi Calm Calm - N/A   Clear
4:53 PM 68.5 °F - 38.1 °F 33% 30.23 in 10.0 mi ENE 4.6 mph - N/A   Clear
5:14 PM 68.0 °F - 38.3 °F 34% 30.23 in 10.0 mi North 5.8 mph - N/A   Clear
5:33 PM 68.0 °F - 37.2 °F 32% 30.23 in 10.0 mi Calm Calm - N/A   Clear
5:53 PM 67.5 °F - 37.6 °F 33% 30.23 in 10.0 mi ENE 4.6 mph - N/A   Clear
6:14 PM 66.0 °F - 40.3 °F 39% 30.23 in 10.0 mi Calm Calm - N/A   Clear
6:33 PM 64.0 °F - 41.2 °F 43% 30.24 in 10.0 mi NE 4.6 mph - N/A   Clear
6:53 PM 62.1 °F - 41.7 °F 47% 30.24 in 10.0 mi NE 4.6 mph - N/A   Clear
7:13 PM 60.8 °F - 41.9 °F 50% 30.24 in 10.0 mi Calm Calm - N/A   Clear
7:33 PM 56.3 °F - 42.4 °F 60% 30.24 in 10.0 mi Calm Calm - N/A   Clear
7:54 PM 53.6 °F - 44.1 °F 70% 30.24 in 10.0 mi Calm Calm - N/A   Clear
8:13 PM 52.2 °F - 43.2 °F 71% 30.24 in 10.0 mi Calm Calm - N/A   Clear
8:33 PM 56.7 °F - 44.6 °F 64% 30.23 in 10.0 mi ENE 10.4 mph - N/A   Clear
8:54 PM 55.8 °F - 45.5 °F 68% 30.23 in 10.0 mi NE 8.1 mph - N/A   Clear
9:13 PM 55.0 °F - 45.5 °F 70% 30.23 in 10.0 mi NE 8.1 mph - N/A   Clear
9:33 PM 54.1 °F - 45.5 °F 73% 30.23 in 10.0 mi NE 5.8 mph - N/A   Clear
9:53 PM 53.6 °F - 45.5 °F 74% 30.23 in 10.0 mi NE 6.9 mph - N/A   Clear
10:13 PM 52.0 °F - 45.3 °F 78% 30.24 in 10.0 mi NE 4.6 mph - N/A   Clear
10:34 PM 52.0 °F - 45.5 °F 79% 30.24 in 10.0 mi NE 3.5 mph - N/A   Clear
10:53 PM 51.3 °F - 45.0 °F 79% 30.24 in 10.0 mi ENE 5.8 mph - N/A   Clear
11:13 PM 50.7 °F - 45.0 °F 81% 30.24 in 10.0 mi NE 3.5 mph - N/A   Clear
11:34 PM 50.5 °F - 44.6 °F 80% 30.24 in 10.0 mi NE 3.5 mph - N/A   Clear
11:53 PM 49.3 °F - 44.2 °F 83% 30.24 in 10.0 mi NE 3.5 mph - N/A   Clear